sensor_id;sensor_type;location;lat;lon;timestamp;P1;durP1;ratioP1;P2;durP2;ratioP2
44722;SDS011;30451;48.638;10.624;2024-01-25T00:01:11;1.08;;;0.60;;
44722;SDS011;30451;48.638;10.624;2024-01-25T00:03:36;1.42;;;0.60;;
44722;SDS011;30451;48.638;10.624;2024-01-25T00:06:02;1.02;;;0.60;;
44722;SDS011;30451;48.638;10.624;2024-01-25T00:08:29;1.05;;;0.60;;
44722;SDS011;30451;48.638;10.624;2024-01-25T00:10:54;1.08;;;0.60;;
44722;SDS011;30451;48.638;10.624;2024-01-25T00:13:20;1.05;;;0.70;;
44722;SDS011;30451;48.638;10.624;2024-01-25T00:15:46;1.60;;;0.50;;
44722;SDS011;30451;48.638;10.624;2024-01-25T00:18:11;1.10;;;0.50;;
44722;SDS011;30451;48.638;10.624;2024-01-25T00:20:37;1.48;;;0.60;;
44722;SDS011;30451;48.638;10.624;2024-01-25T00:23:02;1.15;;;0.65;;
44722;SDS011;30451;48.638;10.624;2024-01-25T00:25:28;0.93;;;0.60;;
44722;SDS011;30451;48.638;10.624;2024-01-25T00:27:54;1.00;;;0.50;;
44722;SDS011;30451;48.638;10.624;2024-01-25T00:30:19;0.85;;;0.52;;
44722;SDS011;30451;48.638;10.624;2024-01-25T00:32:45;0.88;;;0.60;;
44722;SDS011;30451;48.638;10.624;2024-01-25T00:35:11;0.90;;;0.50;;
44722;SDS011;30451;48.638;10.624;2024-01-25T00:37:39;1.05;;;0.57;;
44722;SDS011;30451;48.638;10.624;2024-01-25T00:40:05;1.27;;;0.60;;
44722;SDS011;30451;48.638;10.624;2024-01-25T00:42:32;0.93;;;0.57;;
44722;SDS011;30451;48.638;10.624;2024-01-25T00:45:06;0.85;;;0.60;;
44722;SDS011;30451;48.638;10.624;2024-01-25T00:47:34;0.93;;;0.60;;
44722;SDS011;30451;48.638;10.624;2024-01-25T00:50:00;1.10;;;0.55;;
44722;SDS011;30451;48.638;10.624;2024-01-25T00:52:26;1.30;;;0.70;;
44722;SDS011;30451;48.638;10.624;2024-01-25T00:54:52;1.83;;;0.70;;
44722;SDS011;30451;48.638;10.624;2024-01-25T00:57:18;0.73;;;0.50;;
44722;SDS011;30451;48.638;10.624;2024-01-25T00:59:44;0.57;;;0.43;;
44722;SDS011;30451;48.638;10.624;2024-01-25T01:02:11;1.13;;;0.57;;
44722;SDS011;30451;48.638;10.624;2024-01-25T01:04:37;1.20;;;0.60;;
44722;SDS011;30451;48.638;10.624;2024-01-25T01:07:04;1.15;;;0.60;;
44722;SDS011;30451;48.638;10.624;2024-01-25T01:09:30;1.42;;;0.60;;
44722;SDS011;30451;48.638;10.624;2024-01-25T01:11:55;1.35;;;0.63;;
44722;SDS011;30451;48.638;10.624;2024-01-25T01:14:21;1.13;;;0.60;;
44722;SDS011;30451;48.638;10.624;2024-01-25T01:16:47;1.17;;;0.60;;
44722;SDS011;30451;48.638;10.624;2024-01-25T01:19:12;1.00;;;0.60;;
44722;SDS011;30451;48.638;10.624;2024-01-25T01:21:38;1.10;;;0.60;;
44722;SDS011;30451;48.638;10.624;2024-01-25T01:24:08;0.95;;;0.50;;
44722;SDS011;30451;48.638;10.624;2024-01-25T01:26:37;0.75;;;0.50;;
44722;SDS011;30451;48.638;10.624;2024-01-25T01:29:03;0.68;;;0.50;;
44722;SDS011;30451;48.638;10.624;2024-01-25T01:31:29;1.23;;;0.60;;
44722;SDS011;30451;48.638;10.624;2024-01-25T01:33:54;0.77;;;0.50;;
44722;SDS011;30451;48.638;10.624;2024-01-25T01:36:20;1.30;;;0.60;;
44722;SDS011;30451;48.638;10.624;2024-01-25T01:38:45;0.68;;;0.50;;
44722;SDS011;30451;48.638;10.624;2024-01-25T01:41:11;0.90;;;0.70;;
44722;SDS011;30451;48.638;10.624;2024-01-25T01:43:40;1.20;;;0.70;;
44722;SDS011;30451;48.638;10.624;2024-01-25T01:46:28;1.13;;;0.60;;
44722;SDS011;30451;48.638;10.624;2024-01-25T01:49:05;0.75;;;0.50;;
44722;SDS011;30451;48.638;10.624;2024-01-25T01:51:32;0.88;;;0.50;;
44722;SDS011;30451;48.638;10.624;2024-01-25T01:53:59;0.88;;;0.63;;
44722;SDS011;30451;48.638;10.624;2024-01-25T01:56:31;1.00;;;0.60;;
44722;SDS011;30451;48.638;10.624;2024-01-25T01:59:00;0.90;;;0.40;;
44722;SDS011;30451;48.638;10.624;2024-01-25T02:01:27;0.65;;;0.43;;
44722;SDS011;30451;48.638;10.624;2024-01-25T02:03:53;0.98;;;0.60;;
44722;SDS011;30451;48.638;10.624;2024-01-25T02:06:20;1.35;;;0.70;;
44722;SDS011;30451;48.638;10.624;2024-01-25T02:08:48;1.40;;;0.50;;
44722;SDS011;30451;48.638;10.624;2024-01-25T02:11:16;1.23;;;0.60;;
44722;SDS011;30451;48.638;10.624;2024-01-25T02:13:42;0.85;;;0.60;;
44722;SDS011;30451;48.638;10.624;2024-01-25T02:16:07;0.57;;;0.50;;
44722;SDS011;30451;48.638;10.624;2024-01-25T02:18:33;0.77;;;0.50;;
44722;SDS011;30451;48.638;10.624;2024-01-25T02:20:59;1.13;;;0.60;;
44722;SDS011;30451;48.638;10.624;2024-01-25T02:23:25;1.17;;;0.60;;
44722;SDS011;30451;48.638;10.624;2024-01-25T02:25:51;0.50;;;0.50;;
44722;SDS011;30451;48.638;10.624;2024-01-25T02:28:16;1.13;;;0.52;;
44722;SDS011;30451;48.638;10.624;2024-01-25T02:30:42;1.15;;;0.70;;
44722;SDS011;30451;48.638;10.624;2024-01-25T02:33:08;0.85;;;0.60;;
44722;SDS011;30451;48.638;10.624;2024-01-25T02:35:33;1.02;;;0.60;;
44722;SDS011;30451;48.638;10.624;2024-01-25T02:37:59;1.23;;;0.60;;
44722;SDS011;30451;48.638;10.624;2024-01-25T02:40:25;0.93;;;0.50;;
44722;SDS011;30451;48.638;10.624;2024-01-25T02:42:50;1.30;;;0.60;;
44722;SDS011;30451;48.638;10.624;2024-01-25T02:45:16;0.70;;;0.50;;
44722;SDS011;30451;48.638;10.624;2024-01-25T02:47:42;1.20;;;0.60;;
44722;SDS011;30451;48.638;10.624;2024-01-25T02:50:07;1.15;;;0.80;;
44722;SDS011;30451;48.638;10.624;2024-01-25T02:52:34;1.33;;;0.73;;
44722;SDS011;30451;48.638;10.624;2024-01-25T02:54:59;1.02;;;0.60;;
44722;SDS011;30451;48.638;10.624;2024-01-25T02:57:25;1.48;;;0.80;;
44722;SDS011;30451;48.638;10.624;2024-01-25T02:59:51;1.10;;;0.50;;
44722;SDS011;30451;48.638;10.624;2024-01-25T03:02:17;1.40;;;0.70;;
44722;SDS011;30451;48.638;10.624;2024-01-25T03:04:44;0.70;;;0.50;;
44722;SDS011;30451;48.638;10.624;2024-01-25T03:07:10;1.02;;;0.65;;
44722;SDS011;30451;48.638;10.624;2024-01-25T03:09:36;0.85;;;0.40;;
44722;SDS011;30451;48.638;10.624;2024-01-25T03:12:02;1.27;;;0.70;;
44722;SDS011;30451;48.638;10.624;2024-01-25T03:14:28;0.85;;;0.57;;
44722;SDS011;30451;48.638;10.624;2024-01-25T03:16:56;1.50;;;0.70;;
44722;SDS011;30451;48.638;10.624;2024-01-25T03:19:26;1.40;;;0.70;;
44722;SDS011;30451;48.638;10.624;2024-01-25T03:21:52;0.95;;;0.63;;
44722;SDS011;30451;48.638;10.624;2024-01-25T03:24:19;0.80;;;0.60;;
44722;SDS011;30451;48.638;10.624;2024-01-25T03:26:45;1.02;;;0.52;;
44722;SDS011;30451;48.638;10.624;2024-01-25T03:29:11;0.90;;;0.50;;
44722;SDS011;30451;48.638;10.624;2024-01-25T03:31:36;1.63;;;0.60;;
44722;SDS011;30451;48.638;10.624;2024-01-25T03:34:02;1.00;;;0.57;;
44722;SDS011;30451;48.638;10.624;2024-01-25T03:36:28;0.75;;;0.55;;
44722;SDS011;30451;48.638;10.624;2024-01-25T03:38:54;1.52;;;0.60;;
44722;SDS011;30451;48.638;10.624;2024-01-25T03:41:20;0.60;;;0.50;;
44722;SDS011;30451;48.638;10.624;2024-01-25T03:43:45;0.90;;;0.50;;
44722;SDS011;30451;48.638;10.624;2024-01-25T03:46:12;0.73;;;0.50;;
44722;SDS011;30451;48.638;10.624;2024-01-25T03:48:37;1.15;;;0.70;;
44722;SDS011;30451;48.638;10.624;2024-01-25T03:51:03;1.30;;;0.65;;
44722;SDS011;30451;48.638;10.624;2024-01-25T03:53:29;1.30;;;0.60;;
44722;SDS011;30451;48.638;10.624;2024-01-25T03:55:55;0.73;;;0.50;;
44722;SDS011;30451;48.638;10.624;2024-01-25T03:58:20;0.55;;;0.43;;
44722;SDS011;30451;48.638;10.624;2024-01-25T04:00:46;0.93;;;0.50;;
44722;SDS011;30451;48.638;10.624;2024-01-25T04:03:12;1.08;;;0.50;;
44722;SDS011;30451;48.638;10.624;2024-01-25T04:05:38;0.77;;;0.60;;
44722;SDS011;30451;48.638;10.624;2024-01-25T04:08:07;1.15;;;0.57;;
44722;SDS011;30451;48.638;10.624;2024-01-25T04:10:32;1.33;;;0.60;;
44722;SDS011;30451;48.638;10.624;2024-01-25T04:12:58;1.00;;;0.63;;
44722;SDS011;30451;48.638;10.624;2024-01-25T04:15:29;1.27;;;0.80;;
44722;SDS011;30451;48.638;10.624;2024-01-25T04:17:54;1.38;;;0.60;;
44722;SDS011;30451;48.638;10.624;2024-01-25T04:20:21;0.70;;;0.50;;
44722;SDS011;30451;48.638;10.624;2024-01-25T04:22:47;0.90;;;0.50;;
44722;SDS011;30451;48.638;10.624;2024-01-25T04:25:12;1.00;;;0.50;;
44722;SDS011;30451;48.638;10.624;2024-01-25T04:27:38;1.75;;;0.60;;
44722;SDS011;30451;48.638;10.624;2024-01-25T04:30:04;1.00;;;0.57;;
44722;SDS011;30451;48.638;10.624;2024-01-25T04:32:31;0.82;;;0.70;;
44722;SDS011;30451;48.638;10.624;2024-01-25T04:34:56;0.80;;;0.60;;
44722;SDS011;30451;48.638;10.624;2024-01-25T04:37:22;0.95;;;0.52;;
44722;SDS011;30451;48.638;10.624;2024-01-25T04:39:47;0.70;;;0.50;;
44722;SDS011;30451;48.638;10.624;2024-01-25T04:42:13;1.05;;;0.60;;
44722;SDS011;30451;48.638;10.624;2024-01-25T04:44:39;1.33;;;0.75;;
44722;SDS011;30451;48.638;10.624;2024-01-25T04:47:04;1.33;;;0.70;;
44722;SDS011;30451;48.638;10.624;2024-01-25T04:49:30;0.65;;;0.45;;
44722;SDS011;30451;48.638;10.624;2024-01-25T04:51:56;1.13;;;0.57;;
44722;SDS011;30451;48.638;10.624;2024-01-25T04:54:21;1.50;;;0.70;;
44722;SDS011;30451;48.638;10.624;2024-01-25T04:56:47;0.85;;;0.50;;
44722;SDS011;30451;48.638;10.624;2024-01-25T04:59:12;0.95;;;0.60;;
44722;SDS011;30451;48.638;10.624;2024-01-25T05:01:38;0.93;;;0.60;;
44722;SDS011;30451;48.638;10.624;2024-01-25T05:04:04;0.88;;;0.60;;
44722;SDS011;30451;48.638;10.624;2024-01-25T05:06:29;0.60;;;0.52;;
44722;SDS011;30451;48.638;10.624;2024-01-25T05:08:55;1.23;;;0.57;;
44722;SDS011;30451;48.638;10.624;2024-01-25T05:11:21;0.82;;;0.52;;
44722;SDS011;30451;48.638;10.624;2024-01-25T05:13:47;0.57;;;0.50;;
44722;SDS011;30451;48.638;10.624;2024-01-25T05:16:12;1.25;;;0.70;;
44722;SDS011;30451;48.638;10.624;2024-01-25T05:18:38;0.93;;;0.55;;
44722;SDS011;30451;48.638;10.624;2024-01-25T05:21:03;1.05;;;0.50;;
44722;SDS011;30451;48.638;10.624;2024-01-25T05:23:29;1.55;;;0.60;;
44722;SDS011;30451;48.638;10.624;2024-01-25T05:25:55;0.75;;;0.55;;
44722;SDS011;30451;48.638;10.624;2024-01-25T05:28:21;1.30;;;0.60;;
44722;SDS011;30451;48.638;10.624;2024-01-25T05:30:46;1.70;;;0.80;;
44722;SDS011;30451;48.638;10.624;2024-01-25T05:33:12;1.02;;;0.65;;
44722;SDS011;30451;48.638;10.624;2024-01-25T05:35:37;1.02;;;0.60;;
44722;SDS011;30451;48.638;10.624;2024-01-25T05:38:03;1.35;;;0.60;;
44722;SDS011;30451;48.638;10.624;2024-01-25T05:40:29;1.05;;;0.60;;
44722;SDS011;30451;48.638;10.624;2024-01-25T05:42:54;1.00;;;0.50;;
44722;SDS011;30451;48.638;10.624;2024-01-25T05:45:20;1.10;;;0.60;;
44722;SDS011;30451;48.638;10.624;2024-01-25T05:47:49;0.50;;;0.50;;
44722;SDS011;30451;48.638;10.624;2024-01-25T05:50:15;1.92;;;0.55;;
44722;SDS011;30451;48.638;10.624;2024-01-25T05:52:41;1.30;;;0.60;;
44722;SDS011;30451;48.638;10.624;2024-01-25T05:55:06;1.20;;;0.70;;
44722;SDS011;30451;48.638;10.624;2024-01-25T05:57:34;1.80;;;0.80;;
44722;SDS011;30451;48.638;10.624;2024-01-25T06:00:01;1.27;;;0.60;;
44722;SDS011;30451;48.638;10.624;2024-01-25T06:02:28;1.33;;;0.65;;
44722;SDS011;30451;48.638;10.624;2024-01-25T06:04:53;1.40;;;0.70;;
44722;SDS011;30451;48.638;10.624;2024-01-25T06:07:20;0.98;;;0.60;;
44722;SDS011;30451;48.638;10.624;2024-01-25T06:09:45;1.05;;;0.60;;
44722;SDS011;30451;48.638;10.624;2024-01-25T06:12:11;1.38;;;0.70;;
44722;SDS011;30451;48.638;10.624;2024-01-25T06:14:36;1.05;;;0.60;;
44722;SDS011;30451;48.638;10.624;2024-01-25T06:17:03;2.00;;;0.70;;
44722;SDS011;30451;48.638;10.624;2024-01-25T06:19:28;0.93;;;0.60;;
44722;SDS011;30451;48.638;10.624;2024-01-25T06:21:54;1.52;;;0.90;;
44722;SDS011;30451;48.638;10.624;2024-01-25T06:24:19;1.30;;;0.60;;
44722;SDS011;30451;48.638;10.624;2024-01-25T06:26:45;1.60;;;0.80;;
44722;SDS011;30451;48.638;10.624;2024-01-25T06:29:11;1.40;;;0.85;;
44722;SDS011;30451;48.638;10.624;2024-01-25T06:31:41;1.30;;;0.70;;
44722;SDS011;30451;48.638;10.624;2024-01-25T06:34:07;2.03;;;0.73;;
44722;SDS011;30451;48.638;10.624;2024-01-25T06:36:33;2.00;;;0.82;;
44722;SDS011;30451;48.638;10.624;2024-01-25T06:38:59;1.00;;;0.70;;
44722;SDS011;30451;48.638;10.624;2024-01-25T06:41:24;1.67;;;0.77;;
44722;SDS011;30451;48.638;10.624;2024-01-25T06:43:50;1.45;;;0.68;;
44722;SDS011;30451;48.638;10.624;2024-01-25T06:46:15;2.00;;;0.73;;
44722;SDS011;30451;48.638;10.624;2024-01-25T06:48:41;1.25;;;0.73;;
44722;SDS011;30451;48.638;10.624;2024-01-25T06:51:07;1.73;;;0.80;;
44722;SDS011;30451;48.638;10.624;2024-01-25T06:53:33;1.00;;;0.60;;
44722;SDS011;30451;48.638;10.624;2024-01-25T06:55:58;1.55;;;0.70;;
44722;SDS011;30451;48.638;10.624;2024-01-25T06:58:24;1.70;;;0.70;;
44722;SDS011;30451;48.638;10.624;2024-01-25T07:00:49;1.00;;;0.60;;
44722;SDS011;30451;48.638;10.624;2024-01-25T07:03:15;0.90;;;0.60;;
44722;SDS011;30451;48.638;10.624;2024-01-25T07:05:41;1.80;;;0.80;;
44722;SDS011;30451;48.638;10.624;2024-01-25T07:08:07;1.65;;;0.88;;
44722;SDS011;30451;48.638;10.624;2024-01-25T07:10:37;1.60;;;0.60;;
44722;SDS011;30451;48.638;10.624;2024-01-25T07:13:03;1.33;;;0.60;;
44722;SDS011;30451;48.638;10.624;2024-01-25T07:15:29;2.22;;;0.80;;
44722;SDS011;30451;48.638;10.624;2024-01-25T07:17:54;1.33;;;0.70;;
44722;SDS011;30451;48.638;10.624;2024-01-25T07:20:20;0.88;;;0.60;;
44722;SDS011;30451;48.638;10.624;2024-01-25T07:22:45;1.30;;;0.60;;
44722;SDS011;30451;48.638;10.624;2024-01-25T07:25:11;1.52;;;0.80;;
44722;SDS011;30451;48.638;10.624;2024-01-25T07:27:37;0.98;;;0.65;;
44722;SDS011;30451;48.638;10.624;2024-01-25T07:30:02;2.45;;;1.00;;
44722;SDS011;30451;48.638;10.624;2024-01-25T07:32:28;1.48;;;0.80;;
44722;SDS011;30451;48.638;10.624;2024-01-25T07:34:54;1.73;;;0.90;;
44722;SDS011;30451;48.638;10.624;2024-01-25T07:37:19;2.10;;;0.90;;
44722;SDS011;30451;48.638;10.624;2024-01-25T07:39:45;2.35;;;0.70;;
44722;SDS011;30451;48.638;10.624;2024-01-25T07:42:11;2.33;;;0.60;;
44722;SDS011;30451;48.638;10.624;2024-01-25T07:44:37;1.17;;;0.65;;
44722;SDS011;30451;48.638;10.624;2024-01-25T07:47:03;2.17;;;0.80;;
44722;SDS011;30451;48.638;10.624;2024-01-25T07:49:29;0.93;;;0.70;;
44722;SDS011;30451;48.638;10.624;2024-01-25T07:51:55;0.52;;;0.47;;
44722;SDS011;30451;48.638;10.624;2024-01-25T07:54:24;1.45;;;0.50;;
44722;SDS011;30451;48.638;10.624;2024-01-25T07:56:49;1.00;;;0.50;;
44722;SDS011;30451;48.638;10.624;2024-01-25T07:59:15;1.38;;;0.60;;
44722;SDS011;30451;48.638;10.624;2024-01-25T08:01:41;0.85;;;0.50;;
44722;SDS011;30451;48.638;10.624;2024-01-25T08:04:07;0.75;;;0.40;;
44722;SDS011;30451;48.638;10.624;2024-01-25T08:06:32;0.88;;;0.50;;
44722;SDS011;30451;48.638;10.624;2024-01-25T08:08:58;0.95;;;0.50;;
44722;SDS011;30451;48.638;10.624;2024-01-25T08:11:24;0.88;;;0.40;;
44722;SDS011;30451;48.638;10.624;2024-01-25T08:13:50;0.60;;;0.40;;
44722;SDS011;30451;48.638;10.624;2024-01-25T08:16:16;0.88;;;0.50;;
44722;SDS011;30451;48.638;10.624;2024-01-25T08:18:45;1.10;;;0.50;;
44722;SDS011;30451;48.638;10.624;2024-01-25T08:21:11;0.85;;;0.40;;
44722;SDS011;30451;48.638;10.624;2024-01-25T08:23:37;0.80;;;0.40;;
44722;SDS011;30451;48.638;10.624;2024-01-25T08:26:04;1.08;;;0.43;;
44722;SDS011;30451;48.638;10.624;2024-01-25T08:28:30;0.40;;;0.40;;
44722;SDS011;30451;48.638;10.624;2024-01-25T08:30:56;0.50;;;0.40;;
44722;SDS011;30451;48.638;10.624;2024-01-25T08:33:22;0.50;;;0.40;;
44722;SDS011;30451;48.638;10.624;2024-01-25T08:35:49;0.85;;;0.50;;
44722;SDS011;30451;48.638;10.624;2024-01-25T08:38:15;0.88;;;0.55;;
44722;SDS011;30451;48.638;10.624;2024-01-25T08:40:40;0.30;;;0.30;;
44722;SDS011;30451;48.638;10.624;2024-01-25T08:43:07;0.60;;;0.50;;
44722;SDS011;30451;48.638;10.624;2024-01-25T08:45:35;1.65;;;0.32;;
44722;SDS011;30451;48.638;10.624;2024-01-25T08:48:02;0.80;;;0.40;;
44722;SDS011;30451;48.638;10.624;2024-01-25T08:50:27;0.80;;;0.40;;
44722;SDS011;30451;48.638;10.624;2024-01-25T08:52:53;0.68;;;0.40;;
44722;SDS011;30451;48.638;10.624;2024-01-25T08:55:19;1.05;;;0.60;;
44722;SDS011;30451;48.638;10.624;2024-01-25T08:57:44;0.90;;;0.40;;
44722;SDS011;30451;48.638;10.624;2024-01-25T09:00:10;0.77;;;0.50;;
44722;SDS011;30451;48.638;10.624;2024-01-25T09:02:37;1.75;;;0.50;;
44722;SDS011;30451;48.638;10.624;2024-01-25T09:05:04;0.50;;;0.40;;
44722;SDS011;30451;48.638;10.624;2024-01-25T09:07:30;0.50;;;0.50;;
44722;SDS011;30451;48.638;10.624;2024-01-25T09:09:56;0.40;;;0.40;;
44722;SDS011;30451;48.638;10.624;2024-01-25T09:12:21;0.85;;;0.50;;
44722;SDS011;30451;48.638;10.624;2024-01-25T09:14:47;0.47;;;0.43;;
44722;SDS011;30451;48.638;10.624;2024-01-25T09:17:13;0.55;;;0.45;;
44722;SDS011;30451;48.638;10.624;2024-01-25T09:19:47;0.38;;;0.38;;
44722;SDS011;30451;48.638;10.624;2024-01-25T09:22:14;1.05;;;0.50;;
44722;SDS011;30451;48.638;10.624;2024-01-25T09:24:42;0.63;;;0.50;;
44722;SDS011;30451;48.638;10.624;2024-01-25T09:27:08;0.85;;;0.55;;
44722;SDS011;30451;48.638;10.624;2024-01-25T09:29:33;0.43;;;0.35;;
44722;SDS011;30451;48.638;10.624;2024-01-25T09:31:59;0.30;;;0.30;;
44722;SDS011;30451;48.638;10.624;2024-01-25T09:34:25;0.43;;;0.40;;
44722;SDS011;30451;48.638;10.624;2024-01-25T09:36:51;0.30;;;0.30;;
44722;SDS011;30451;48.638;10.624;2024-01-25T09:39:16;0.55;;;0.50;;
44722;SDS011;30451;48.638;10.624;2024-01-25T09:41:42;0.57;;;0.38;;
44722;SDS011;30451;48.638;10.624;2024-01-25T09:44:08;0.60;;;0.50;;
44722;SDS011;30451;48.638;10.624;2024-01-25T09:46:34;0.63;;;0.40;;
44722;SDS011;30451;48.638;10.624;2024-01-25T09:49:01;0.40;;;0.40;;
44722;SDS011;30451;48.638;10.624;2024-01-25T09:51:28;1.20;;;0.70;;
44722;SDS011;30451;48.638;10.624;2024-01-25T09:54:01;2.90;;;1.10;;
44722;SDS011;30451;48.638;10.624;2024-01-25T09:56:28;1.80;;;0.90;;
44722;SDS011;30451;48.638;10.624;2024-01-25T09:58:57;1.90;;;1.00;;
44722;SDS011;30451;48.638;10.624;2024-01-25T10:01:23;2.00;;;0.90;;
44722;SDS011;30451;48.638;10.624;2024-01-25T10:03:49;2.63;;;1.30;;
44722;SDS011;30451;48.638;10.624;2024-01-25T10:06:15;1.67;;;1.05;;
44722;SDS011;30451;48.638;10.624;2024-01-25T10:08:42;2.92;;;0.85;;
44722;SDS011;30451;48.638;10.624;2024-01-25T10:11:08;2.75;;;1.10;;
44722;SDS011;30451;48.638;10.624;2024-01-25T10:13:43;2.08;;;1.08;;
44722;SDS011;30451;48.638;10.624;2024-01-25T10:16:10;2.20;;;1.00;;
44722;SDS011;30451;48.638;10.624;2024-01-25T10:18:37;1.65;;;0.90;;
44722;SDS011;30451;48.638;10.624;2024-01-25T10:21:05;2.10;;;1.08;;
44722;SDS011;30451;48.638;10.624;2024-01-25T10:23:31;2.22;;;1.00;;
44722;SDS011;30451;48.638;10.624;2024-01-25T10:25:57;2.40;;;1.42;;
44722;SDS011;30451;48.638;10.624;2024-01-25T10:28:23;2.05;;;1.05;;
44722;SDS011;30451;48.638;10.624;2024-01-25T10:30:50;1.98;;;0.90;;
44722;SDS011;30451;48.638;10.624;2024-01-25T10:33:16;1.90;;;1.00;;
44722;SDS011;30451;48.638;10.624;2024-01-25T10:35:43;2.40;;;1.13;;
44722;SDS011;30451;48.638;10.624;2024-01-25T10:38:15;2.83;;;1.17;;
44722;SDS011;30451;48.638;10.624;2024-01-25T10:40:42;1.98;;;1.00;;
44722;SDS011;30451;48.638;10.624;2024-01-25T10:43:09;2.13;;;0.90;;
44722;SDS011;30451;48.638;10.624;2024-01-25T10:45:35;1.85;;;1.05;;
44722;SDS011;30451;48.638;10.624;2024-01-25T10:48:00;2.72;;;1.10;;
44722;SDS011;30451;48.638;10.624;2024-01-25T10:50:26;2.10;;;1.10;;
44722;SDS011;30451;48.638;10.624;2024-01-25T10:52:52;1.42;;;1.10;;
44722;SDS011;30451;48.638;10.624;2024-01-25T10:55:18;2.28;;;1.10;;
44722;SDS011;30451;48.638;10.624;2024-01-25T10:57:45;1.90;;;0.80;;
44722;SDS011;30451;48.638;10.624;2024-01-25T11:00:12;2.53;;;0.90;;
44722;SDS011;30451;48.638;10.624;2024-01-25T11:02:40;1.60;;;1.00;;
44722;SDS011;30451;48.638;10.624;2024-01-25T11:05:07;1.50;;;0.90;;
44722;SDS011;30451;48.638;10.624;2024-01-25T11:07:41;2.13;;;0.82;;
44722;SDS011;30451;48.638;10.624;2024-01-25T11:10:27;1.88;;;0.98;;
44722;SDS011;30451;48.638;10.624;2024-01-25T11:13:00;1.90;;;0.90;;
44722;SDS011;30451;48.638;10.624;2024-01-25T11:17:58;4.07;;;1.00;;
44722;SDS011;30451;48.638;10.624;2024-01-25T11:20:29;1.70;;;0.82;;
44722;SDS011;30451;48.638;10.624;2024-01-25T11:25:32;1.52;;;0.70;;
44722;SDS011;30451;48.638;10.624;2024-01-25T11:28:02;1.80;;;0.82;;
44722;SDS011;30451;48.638;10.624;2024-01-25T11:30:30;1.83;;;0.90;;
44722;SDS011;30451;48.638;10.624;2024-01-25T11:32:58;1.20;;;0.77;;
44722;SDS011;30451;48.638;10.624;2024-01-25T11:35:24;1.73;;;0.80;;
44722;SDS011;30451;48.638;10.624;2024-01-25T11:37:50;1.75;;;0.82;;
44722;SDS011;30451;48.638;10.624;2024-01-25T11:40:18;1.50;;;0.80;;
44722;SDS011;30451;48.638;10.624;2024-01-25T11:42:47;1.15;;;0.80;;
44722;SDS011;30451;48.638;10.624;2024-01-25T11:45:13;2.55;;;0.90;;
44722;SDS011;30451;48.638;10.624;2024-01-25T11:47:40;1.05;;;0.70;;
44722;SDS011;30451;48.638;10.624;2024-01-25T11:50:07;1.40;;;0.90;;
44722;SDS011;30451;48.638;10.624;2024-01-25T11:52:34;1.70;;;0.82;;
44722;SDS011;30451;48.638;10.624;2024-01-25T11:55:08;2.47;;;1.10;;
44722;SDS011;30451;48.638;10.624;2024-01-25T11:57:35;2.60;;;1.50;;
44722;SDS011;30451;48.638;10.624;2024-01-25T12:00:10;2.85;;;2.00;;
44722;SDS011;30451;48.638;10.624;2024-01-25T12:02:39;3.47;;;2.25;;
44722;SDS011;30451;48.638;10.624;2024-01-25T12:05:05;4.13;;;2.83;;
44722;SDS011;30451;48.638;10.624;2024-01-25T12:07:31;4.32;;;2.95;;
44722;SDS011;30451;48.638;10.624;2024-01-25T12:12:23;3.97;;;2.90;;
44722;SDS011;30451;48.638;10.624;2024-01-25T12:14:49;4.60;;;3.13;;
44722;SDS011;30451;48.638;10.624;2024-01-25T12:17:14;4.72;;;2.92;;
44722;SDS011;30451;48.638;10.624;2024-01-25T12:19:40;4.53;;;2.88;;
44722;SDS011;30451;48.638;10.624;2024-01-25T12:22:06;5.15;;;3.63;;
44722;SDS011;30451;48.638;10.624;2024-01-25T12:24:31;5.25;;;3.42;;
44722;SDS011;30451;48.638;10.624;2024-01-25T12:26:57;5.78;;;3.70;;
44722;SDS011;30451;48.638;10.624;2024-01-25T12:29:23;5.40;;;3.50;;
44722;SDS011;30451;48.638;10.624;2024-01-25T12:31:49;7.03;;;3.30;;
44722;SDS011;30451;48.638;10.624;2024-01-25T12:34:15;5.53;;;3.20;;
44722;SDS011;30451;48.638;10.624;2024-01-25T12:36:41;5.50;;;3.30;;
44722;SDS011;30451;48.638;10.624;2024-01-25T12:39:07;5.95;;;3.50;;
44722;SDS011;30451;48.638;10.624;2024-01-25T12:41:33;5.45;;;3.30;;
44722;SDS011;30451;48.638;10.624;2024-01-25T12:44:00;4.80;;;2.78;;
44722;SDS011;30451;48.638;10.624;2024-01-25T12:46:26;5.20;;;2.75;;
44722;SDS011;30451;48.638;10.624;2024-01-25T12:48:51;4.10;;;2.67;;
44722;SDS011;30451;48.638;10.624;2024-01-25T12:51:20;4.20;;;2.55;;
44722;SDS011;30451;48.638;10.624;2024-01-25T12:53:46;3.95;;;2.20;;
44722;SDS011;30451;48.638;10.624;2024-01-25T12:56:14;4.68;;;2.50;;
44722;SDS011;30451;48.638;10.624;2024-01-25T12:58:40;3.95;;;2.38;;
44722;SDS011;30451;48.638;10.624;2024-01-25T13:01:06;5.18;;;2.92;;
44722;SDS011;30451;48.638;10.624;2024-01-25T13:03:31;3.92;;;2.40;;
44722;SDS011;30451;48.638;10.624;2024-01-25T13:05:57;4.18;;;2.20;;
44722;SDS011;30451;48.638;10.624;2024-01-25T13:08:23;4.00;;;2.28;;
44722;SDS011;30451;48.638;10.624;2024-01-25T13:10:48;4.20;;;2.15;;
44722;SDS011;30451;48.638;10.624;2024-01-25T13:13:14;3.60;;;2.03;;
44722;SDS011;30451;48.638;10.624;2024-01-25T13:15:40;3.67;;;2.20;;
44722;SDS011;30451;48.638;10.624;2024-01-25T13:18:05;4.88;;;2.20;;
44722;SDS011;30451;48.638;10.624;2024-01-25T13:20:31;3.80;;;2.28;;
44722;SDS011;30451;48.638;10.624;2024-01-25T13:22:57;3.80;;;2.10;;
44722;SDS011;30451;48.638;10.624;2024-01-25T13:25:22;4.93;;;2.08;;
44722;SDS011;30451;48.638;10.624;2024-01-25T13:27:48;2.83;;;1.73;;
44722;SDS011;30451;48.638;10.624;2024-01-25T13:30:13;3.78;;;2.03;;
44722;SDS011;30451;48.638;10.624;2024-01-25T13:32:39;3.47;;;1.75;;
44722;SDS011;30451;48.638;10.624;2024-01-25T13:35:05;3.72;;;1.92;;
44722;SDS011;30451;48.638;10.624;2024-01-25T13:37:32;2.92;;;1.90;;
44722;SDS011;30451;48.638;10.624;2024-01-25T13:39:57;2.63;;;1.70;;
44722;SDS011;30451;48.638;10.624;2024-01-25T13:42:23;3.33;;;1.80;;
44722;SDS011;30451;48.638;10.624;2024-01-25T13:44:49;3.15;;;1.60;;
44722;SDS011;30451;48.638;10.624;2024-01-25T13:47:14;3.10;;;1.60;;
44722;SDS011;30451;48.638;10.624;2024-01-25T13:49:40;3.10;;;1.55;;
44722;SDS011;30451;48.638;10.624;2024-01-25T13:52:05;3.00;;;1.40;;
44722;SDS011;30451;48.638;10.624;2024-01-25T13:54:31;3.03;;;1.67;;
44722;SDS011;30451;48.638;10.624;2024-01-25T13:56:57;3.10;;;1.70;;
44722;SDS011;30451;48.638;10.624;2024-01-25T13:59:22;3.10;;;1.60;;
44722;SDS011;30451;48.638;10.624;2024-01-25T14:01:50;3.25;;;1.80;;
44722;SDS011;30451;48.638;10.624;2024-01-25T14:04:16;3.95;;;1.60;;
44722;SDS011;30451;48.638;10.624;2024-01-25T14:06:42;2.92;;;1.52;;
44722;SDS011;30451;48.638;10.624;2024-01-25T14:09:08;3.03;;;1.60;;
44722;SDS011;30451;48.638;10.624;2024-01-25T14:11:34;2.63;;;1.50;;
44722;SDS011;30451;48.638;10.624;2024-01-25T14:14:00;3.10;;;1.50;;
44722;SDS011;30451;48.638;10.624;2024-01-25T14:16:25;3.22;;;1.65;;
44722;SDS011;30451;48.638;10.624;2024-01-25T14:18:51;3.60;;;1.60;;
44722;SDS011;30451;48.638;10.624;2024-01-25T14:21:17;3.65;;;1.70;;
44722;SDS011;30451;48.638;10.624;2024-01-25T14:23:45;3.85;;;1.60;;
44722;SDS011;30451;48.638;10.624;2024-01-25T14:26:11;3.40;;;1.27;;
44722;SDS011;30451;48.638;10.624;2024-01-25T14:28:37;3.60;;;1.50;;
44722;SDS011;30451;48.638;10.624;2024-01-25T14:31:02;5.13;;;1.65;;
44722;SDS011;30451;48.638;10.624;2024-01-25T14:33:28;4.05;;;1.50;;
44722;SDS011;30451;48.638;10.624;2024-01-25T14:35:54;3.60;;;1.70;;